sensor_id;sensor_type;location;lat;lon;timestamp;temperature;humidity
26326;DHT22;14032;52.510;7.342;2022-12-29T00:02:13;10.20;99.90
26326;DHT22;14032;52.510;7.342;2022-12-29T00:04:40;10.20;99.90
26326;DHT22;14032;52.510;7.342;2022-12-29T00:07:06;10.30;99.90
26326;DHT22;14032;52.510;7.342;2022-12-29T00:09:32;10.30;99.90
26326;DHT22;14032;52.510;7.342;2022-12-29T00:11:58;10.30;99.90
26326;DHT22;14032;52.510;7.342;2022-12-29T00:14:24;10.40;99.90
26326;DHT22;14032;52.510;7.342;2022-12-29T00:17:08;10.40;99.90
26326;DHT22;14032;52.510;7.342;2022-12-29T00:19:34;10.40;99.90
26326;DHT22;14032;52.510;7.342;2022-12-29T00:22:18;10.40;99.90
26326;DHT22;14032;52.510;7.342;2022-12-29T00:25:03;10.40;99.90
26326;DHT22;14032;52.510;7.342;2022-12-29T00:27:48;10.50;99.90
26326;DHT22;14032;52.510;7.342;2022-12-29T00:30:32;10.50;99.90
26326;DHT22;14032;52.510;7.342;2022-12-29T00:33:18;10.50;99.90
26326;DHT22;14032;52.510;7.342;2022-12-29T00:36:10;10.50;99.90
26326;DHT22;14032;52.510;7.342;2022-12-29T00:38:38;10.50;99.90
26326;DHT22;14032;52.510;7.342;2022-12-29T00:41:24;10.60;99.90
26326;DHT22;14032;52.510;7.342;2022-12-29T00:44:10;10.60;99.90
26326;DHT22;14032;52.510;7.342;2022-12-29T00:46:39;10.60;99.90
26326;DHT22;14032;52.510;7.342;2022-12-29T00:49:06;10.60;99.90
26326;DHT22;14032;52.510;7.342;2022-12-29T00:51:50;10.70;99.90
26326;DHT22;14032;52.510;7.342;2022-12-29T00:54:17;10.70;99.90
26326;DHT22;14032;52.510;7.342;2022-12-29T00:56:42;10.70;99.90
26326;DHT22;14032;52.510;7.342;2022-12-29T00:59:10;10.80;99.90
26326;DHT22;14032;52.510;7.342;2022-12-29T01:01:37;10.70;99.90
26326;DHT22;14032;52.510;7.342;2022-12-29T01:04:04;10.70;99.90
26326;DHT22;14032;52.510;7.342;2022-12-29T01:06:30;10.80;99.90
26326;DHT22;14032;52.510;7.342;2022-12-29T01:08:56;10.70;99.90
26326;DHT22;14032;52.510;7.342;2022-12-29T01:11:40;10.80;99.90
26326;DHT22;14032;52.510;7.342;2022-12-29T01:14:06;10.80;99.90
26326;DHT22;14032;52.510;7.342;2022-12-29T01:16:32;10.80;99.90
26326;DHT22;14032;52.510;7.342;2022-12-29T01:18:58;10.80;99.90
26326;DHT22;14032;52.510;7.342;2022-12-29T01:21:24;10.80;99.90
26326;DHT22;14032;52.510;7.342;2022-12-29T01:23:49;10.80;99.90
26326;DHT22;14032;52.510;7.342;2022-12-29T01:26:16;10.80;99.90
26326;DHT22;14032;52.510;7.342;2022-12-29T01:28:43;10.80;99.90
26326;DHT22;14032;52.510;7.342;2022-12-29T01:31:10;10.90;99.90
26326;DHT22;14032;52.510;7.342;2022-12-29T01:33:36;10.90;99.90
26326;DHT22;14032;52.510;7.342;2022-12-29T01:36:07;11.00;99.90
26326;DHT22;14032;52.510;7.342;2022-12-29T01:38:34;11.00;99.90
26326;DHT22;14032;52.510;7.342;2022-12-29T01:40:59;10.90;99.90
26326;DHT22;14032;52.510;7.342;2022-12-29T01:43:49;11.00;99.90
26326;DHT22;14032;52.510;7.342;2022-12-29T01:49:34;11.00;99.90
26326;DHT22;14032;52.510;7.342;2022-12-29T01:51:48;11.00;99.90
26326;DHT22;14032;52.510;7.342;2022-12-29T01:56:47;11.00;99.90
26326;DHT22;14032;52.510;7.342;2022-12-29T01:59:19;11.00;99.90
26326;DHT22;14032;52.510;7.342;2022-12-29T02:01:46;11.00;99.90
26326;DHT22;14032;52.510;7.342;2022-12-29T02:04:12;11.10;99.90
26326;DHT22;14032;52.510;7.342;2022-12-29T02:06:46;11.00;99.90
26326;DHT22;14032;52.510;7.342;2022-12-29T02:09:13;11.00;99.90
26326;DHT22;14032;52.510;7.342;2022-12-29T02:11:39;11.00;99.90
26326;DHT22;14032;52.510;7.342;2022-12-29T02:14:09;11.00;99.90
26326;DHT22;14032;52.510;7.342;2022-12-29T02:22:27;10.90;99.90
26326;DHT22;14032;52.510;7.342;2022-12-29T02:39:52;10.60;99.90
26326;DHT22;14032;52.510;7.342;2022-12-29T02:42:13;10.50;99.90
26326;DHT22;14032;52.510;7.342;2022-12-29T02:49:59;10.50;99.90
26326;DHT22;14032;52.510;7.342;2022-12-29T02:52:34;10.60;99.90
26326;DHT22;14032;52.510;7.342;2022-12-29T02:55:02;10.60;99.90
26326;DHT22;14032;52.510;7.342;2022-12-29T02:57:33;10.60;99.90
26326;DHT22;14032;52.510;7.342;2022-12-29T03:00:06;10.60;99.90
26326;DHT22;14032;52.510;7.342;2022-12-29T03:11:02;10.60;99.90
26326;DHT22;14032;52.510;7.342;2022-12-29T03:13:44;10.60;99.90
26326;DHT22;14032;52.510;7.342;2022-12-29T03:16:46;10.60;99.90
26326;DHT22;14032;52.510;7.342;2022-12-29T03:19:38;10.60;99.90
26326;DHT22;14032;52.510;7.342;2022-12-29T03:22:19;10.70;99.90
26326;DHT22;14032;52.510;7.342;2022-12-29T03:24:56;10.70;99.90
26326;DHT22;14032;52.510;7.342;2022-12-29T03:27:30;10.70;99.90
26326;DHT22;14032;52.510;7.342;2022-12-29T03:30:00;10.70;99.90
26326;DHT22;14032;52.510;7.342;2022-12-29T03:32:48;10.70;99.90
26326;DHT22;14032;52.510;7.342;2022-12-29T03:35:18;10.80;99.90
26326;DHT22;14032;52.510;7.342;2022-12-29T03:40:33;10.80;99.90
26326;DHT22;14032;52.510;7.342;2022-12-29T03:43:00;10.80;99.90
26326;DHT22;14032;52.510;7.342;2022-12-29T03:45:26;10.80;99.90
26326;DHT22;14032;52.510;7.342;2022-12-29T03:47:53;10.80;99.90
26326;DHT22;14032;52.510;7.342;2022-12-29T03:50:18;10.80;99.90
26326;DHT22;14032;52.510;7.342;2022-12-29T03:52:44;10.80;99.90
26326;DHT22;14032;52.510;7.342;2022-12-29T03:55:09;10.70;99.90
26326;DHT22;14032;52.510;7.342;2022-12-29T03:57:35;10.70;99.90
26326;DHT22;14032;52.510;7.342;2022-12-29T04:00:02;10.60;99.90
26326;DHT22;14032;52.510;7.342;2022-12-29T04:02:28;10.50;99.90
26326;DHT22;14032;52.510;7.342;2022-12-29T04:04:53;10.50;99.90
26326;DHT22;14032;52.510;7.342;2022-12-29T04:07:19;10.40;99.90
26326;DHT22;14032;52.510;7.342;2022-12-29T04:09:45;10.30;99.90
26326;DHT22;14032;52.510;7.342;2022-12-29T04:12:10;10.30;99.90
26326;DHT22;14032;52.510;7.342;2022-12-29T04:14:36;10.20;99.90
26326;DHT22;14032;52.510;7.342;2022-12-29T04:17:01;10.20;99.90
26326;DHT22;14032;52.510;7.342;2022-12-29T04:19:27;10.10;99.90
26326;DHT22;14032;52.510;7.342;2022-12-29T04:21:52;10.10;99.90
26326;DHT22;14032;52.510;7.342;2022-12-29T04:24:18;10.10;99.90
26326;DHT22;14032;52.510;7.342;2022-12-29T04:26:43;10.10;99.90
26326;DHT22;14032;52.510;7.342;2022-12-29T04:29:09;10.20;99.90
26326;DHT22;14032;52.510;7.342;2022-12-29T04:31:35;10.20;99.90
26326;DHT22;14032;52.510;7.342;2022-12-29T04:34:00;10.20;99.90
26326;DHT22;14032;52.510;7.342;2022-12-29T04:36:26;10.20;99.90
26326;DHT22;14032;52.510;7.342;2022-12-29T04:38:51;10.20;99.90
26326;DHT22;14032;52.510;7.342;2022-12-29T04:41:17;10.20;99.90
26326;DHT22;14032;52.510;7.342;2022-12-29T04:43:43;10.10;99.90
26326;DHT22;14032;52.510;7.342;2022-12-29T04:46:08;10.10;99.90
26326;DHT22;14032;52.510;7.342;2022-12-29T04:48:34;10.10;99.90
26326;DHT22;14032;52.510;7.342;2022-12-29T04:50:59;10.10;99.90
26326;DHT22;14032;52.510;7.342;2022-12-29T04:53:25;10.10;99.90
26326;DHT22;14032;52.510;7.342;2022-12-29T04:55:52;10.10;99.90
26326;DHT22;14032;52.510;7.342;2022-12-29T04:58:19;10.10;99.90
26326;DHT22;14032;52.510;7.342;2022-12-29T05:00:44;10.10;99.90
26326;DHT22;14032;52.510;7.342;2022-12-29T05:03:10;10.20;99.90
26326;DHT22;14032;52.510;7.342;2022-12-29T05:05:36;10.10;99.90
26326;DHT22;14032;52.510;7.342;2022-12-29T05:08:01;10.10;99.90
26326;DHT22;14032;52.510;7.342;2022-12-29T05:10:27;10.10;99.90
26326;DHT22;14032;52.510;7.342;2022-12-29T05:12:52;10.10;99.90
26326;DHT22;14032;52.510;7.342;2022-12-29T05:15:18;10.20;99.90
26326;DHT22;14032;52.510;7.342;2022-12-29T05:17:44;10.20;99.90
26326;DHT22;14032;52.510;7.342;2022-12-29T05:20:10;10.10;99.90
26326;DHT22;14032;52.510;7.342;2022-12-29T05:22:36;10.20;99.90
26326;DHT22;14032;52.510;7.342;2022-12-29T05:25:02;10.30;99.90
26326;DHT22;14032;52.510;7.342;2022-12-29T05:27:27;10.30;99.90
26326;DHT22;14032;52.510;7.342;2022-12-29T05:29:53;10.30;99.90
26326;DHT22;14032;52.510;7.342;2022-12-29T05:32:19;10.30;99.90
26326;DHT22;14032;52.510;7.342;2022-12-29T05:34:44;10.40;99.90
26326;DHT22;14032;52.510;7.342;2022-12-29T05:37:10;10.40;99.90
26326;DHT22;14032;52.510;7.342;2022-12-29T05:39:36;10.30;99.90
26326;DHT22;14032;52.510;7.342;2022-12-29T05:42:01;10.40;99.90
26326;DHT22;14032;52.510;7.342;2022-12-29T05:44:27;10.30;99.90
26326;DHT22;14032;52.510;7.342;2022-12-29T05:46:52;10.40;99.90
26326;DHT22;14032;52.510;7.342;2022-12-29T05:49:19;10.40;99.90
26326;DHT22;14032;52.510;7.342;2022-12-29T05:51:45;10.50;99.90
26326;DHT22;14032;52.510;7.342;2022-12-29T05:54:11;10.50;99.90
26326;DHT22;14032;52.510;7.342;2022-12-29T05:56:36;10.50;99.90
26326;DHT22;14032;52.510;7.342;2022-12-29T05:59:02;10.50;99.90
26326;DHT22;14032;52.510;7.342;2022-12-29T06:01:27;10.50;99.90
26326;DHT22;14032;52.510;7.342;2022-12-29T06:03:53;10.50;99.90
26326;DHT22;14032;52.510;7.342;2022-12-29T06:06:19;10.50;99.90
26326;DHT22;14032;52.510;7.342;2022-12-29T06:08:44;10.50;99.90
26326;DHT22;14032;52.510;7.342;2022-12-29T06:11:10;10.40;99.90
26326;DHT22;14032;52.510;7.342;2022-12-29T06:13:36;10.30;99.90
26326;DHT22;14032;52.510;7.342;2022-12-29T06:16:01;10.20;99.90
26326;DHT22;14032;52.510;7.342;2022-12-29T06:18:27;10.20;99.90
26326;DHT22;14032;52.510;7.342;2022-12-29T06:20:53;10.20;99.90
26326;DHT22;14032;52.510;7.342;2022-12-29T06:23:18;10.10;99.90
26326;DHT22;14032;52.510;7.342;2022-12-29T06:25:44;10.10;99.90
26326;DHT22;14032;52.510;7.342;2022-12-29T06:28:11;10.10;99.90
26326;DHT22;14032;52.510;7.342;2022-12-29T06:30:37;10.00;99.90
26326;DHT22;14032;52.510;7.342;2022-12-29T06:33:03;10.00;99.90
26326;DHT22;14032;52.510;7.342;2022-12-29T06:35:29;10.00;99.90
26326;DHT22;14032;52.510;7.342;2022-12-29T06:37:55;10.00;99.90
26326;DHT22;14032;52.510;7.342;2022-12-29T06:40:20;10.00;99.90
26326;DHT22;14032;52.510;7.342;2022-12-29T06:42:47;9.90;99.90
26326;DHT22;14032;52.510;7.342;2022-12-29T06:45:12;10.00;99.90
26326;DHT22;14032;52.510;7.342;2022-12-29T06:47:38;9.90;99.90
26326;DHT22;14032;52.510;7.342;2022-12-29T06:50:04;9.90;99.90
26326;DHT22;14032;52.510;7.342;2022-12-29T06:52:29;9.90;99.90
26326;DHT22;14032;52.510;7.342;2022-12-29T06:54:55;9.90;99.90
26326;DHT22;14032;52.510;7.342;2022-12-29T06:57:21;9.90;99.90
26326;DHT22;14032;52.510;7.342;2022-12-29T06:59:46;9.80;99.90
26326;DHT22;14032;52.510;7.342;2022-12-29T07:02:13;9.80;99.90
26326;DHT22;14032;52.510;7.342;2022-12-29T07:04:43;9.70;99.90
26326;DHT22;14032;52.510;7.342;2022-12-29T07:07:09;9.70;99.90
26326;DHT22;14032;52.510;7.342;2022-12-29T07:09:34;9.70;99.90
26326;DHT22;14032;52.510;7.342;2022-12-29T07:12:00;9.70;99.90
26326;DHT22;14032;52.510;7.342;2022-12-29T07:14:25;9.70;99.90
26326;DHT22;14032;52.510;7.342;2022-12-29T07:16:51;9.70;99.90
26326;DHT22;14032;52.510;7.342;2022-12-29T07:19:16;9.70;99.90
26326;DHT22;14032;52.510;7.342;2022-12-29T07:21:42;9.70;99.90
26326;DHT22;14032;52.510;7.342;2022-12-29T07:24:09;9.70;99.90
26326;DHT22;14032;52.510;7.342;2022-12-29T07:26:34;9.60;99.90
26326;DHT22;14032;52.510;7.342;2022-12-29T07:29:02;9.60;99.90
26326;DHT22;14032;52.510;7.342;2022-12-29T07:31:28;9.60;99.90
26326;DHT22;14032;52.510;7.342;2022-12-29T07:33:54;9.60;99.90
26326;DHT22;14032;52.510;7.342;2022-12-29T07:36:19;9.50;99.90
26326;DHT22;14032;52.510;7.342;2022-12-29T07:38:45;9.50;99.90
26326;DHT22;14032;52.510;7.342;2022-12-29T07:41:10;9.40;99.90
26326;DHT22;14032;52.510;7.342;2022-12-29T07:43:36;9.40;99.90
26326;DHT22;14032;52.510;7.342;2022-12-29T07:46:01;9.40;99.90
26326;DHT22;14032;52.510;7.342;2022-12-29T07:48:28;9.40;99.90
26326;DHT22;14032;52.510;7.342;2022-12-29T07:50:53;9.50;99.90
26326;DHT22;14032;52.510;7.342;2022-12-29T07:53:19;9.50;99.90
26326;DHT22;14032;52.510;7.342;2022-12-29T07:55:44;9.50;99.90
26326;DHT22;14032;52.510;7.342;2022-12-29T07:58:10;9.50;99.90
26326;DHT22;14032;52.510;7.342;2022-12-29T08:00:37;9.50;99.90
26326;DHT22;14032;52.510;7.342;2022-12-29T08:03:03;9.60;99.90
26326;DHT22;14032;52.510;7.342;2022-12-29T08:05:30;9.50;99.90
26326;DHT22;14032;52.510;7.342;2022-12-29T08:07:56;9.50;99.90
26326;DHT22;14032;52.510;7.342;2022-12-29T08:10:22;9.50;99.90
26326;DHT22;14032;52.510;7.342;2022-12-29T08:12:48;9.50;99.90
26326;DHT22;14032;52.510;7.342;2022-12-29T08:15:14;9.60;99.90
26326;DHT22;14032;52.510;7.342;2022-12-29T08:17:40;9.50;99.90
26326;DHT22;14032;52.510;7.342;2022-12-29T08:20:05;9.60;99.90
26326;DHT22;14032;52.510;7.342;2022-12-29T08:22:31;9.60;99.90
26326;DHT22;14032;52.510;7.342;2022-12-29T08:24:57;9.60;99.90
26326;DHT22;14032;52.510;7.342;2022-12-29T08:27:22;9.70;99.90
26326;DHT22;14032;52.510;7.342;2022-12-29T08:29:48;9.70;99.90
26326;DHT22;14032;52.510;7.342;2022-12-29T08:32:15;9.60;99.90
26326;DHT22;14032;52.510;7.342;2022-12-29T08:34:41;9.70;99.90
26326;DHT22;14032;52.510;7.342;2022-12-29T08:37:06;9.70;99.90
26326;DHT22;14032;52.510;7.342;2022-12-29T08:39:32;9.80;99.90
26326;DHT22;14032;52.510;7.342;2022-12-29T08:41:57;9.70;99.90
26326;DHT22;14032;52.510;7.342;2022-12-29T08:44:23;9.70;99.90
26326;DHT22;14032;52.510;7.342;2022-12-29T08:46:49;9.60;99.90
26326;DHT22;14032;52.510;7.342;2022-12-29T08:49:15;9.50;99.90
26326;DHT22;14032;52.510;7.342;2022-12-29T08:51:40;9.50;99.90
26326;DHT22;14032;52.510;7.342;2022-12-29T08:54:06;9.40;99.90
26326;DHT22;14032;52.510;7.342;2022-12-29T08:56:32;9.30;99.90
26326;DHT22;14032;52.510;7.342;2022-12-29T08:58:57;9.20;99.90
26326;DHT22;14032;52.510;7.342;2022-12-29T09:01:23;9.20;99.90
26326;DHT22;14032;52.510;7.342;2022-12-29T09:03:49;9.10;99.90
26326;DHT22;14032;52.510;7.342;2022-12-29T09:06:16;9.00;99.90
26326;DHT22;14032;52.510;7.342;2022-12-29T09:08:42;9.00;99.90
26326;DHT22;14032;52.510;7.342;2022-12-29T09:11:10;8.90;99.90
26326;DHT22;14032;52.510;7.342;2022-12-29T09:13:36;8.90;99.90
26326;DHT22;14032;52.510;7.342;2022-12-29T09:16:02;8.90;99.90
26326;DHT22;14032;52.510;7.342;2022-12-29T09:18:27;8.90;99.90
26326;DHT22;14032;52.510;7.342;2022-12-29T09:21:00;8.90;99.90
26326;DHT22;14032;52.510;7.342;2022-12-29T09:23:26;8.80;99.90
26326;DHT22;14032;52.510;7.342;2022-12-29T09:25:53;8.80;99.90
26326;DHT22;14032;52.510;7.342;2022-12-29T09:28:19;8.80;99.90
26326;DHT22;14032;52.510;7.342;2022-12-29T09:30:45;8.70;99.90
26326;DHT22;14032;52.510;7.342;2022-12-29T09:33:10;8.70;99.90
26326;DHT22;14032;52.510;7.342;2022-12-29T09:35:37;8.80;99.90
26326;DHT22;14032;52.510;7.342;2022-12-29T09:38:06;8.80;99.90
26326;DHT22;14032;52.510;7.342;2022-12-29T09:40:33;8.80;99.90
26326;DHT22;14032;52.510;7.342;2022-12-29T09:45:42;8.90;99.90
26326;DHT22;14032;52.510;7.342;2022-12-29T09:48:27;9.00;99.90
26326;DHT22;14032;52.510;7.342;2022-12-29T09:50:57;9.10;99.90
26326;DHT22;14032;52.510;7.342;2022-12-29T09:53:38;9.10;99.90
26326;DHT22;14032;52.510;7.342;2022-12-29T09:56:13;9.10;99.90
26326;DHT22;14032;52.510;7.342;2022-12-29T09:59:02;9.20;99.90
26326;DHT22;14032;52.510;7.342;2022-12-29T10:01:34;9.30;99.90
26326;DHT22;14032;52.510;7.342;2022-12-29T10:04:02;9.40;99.90
26326;DHT22;14032;52.510;7.342;2022-12-29T10:25:17;9.70;99.90
26326;DHT22;14032;52.510;7.342;2022-12-29T10:27:48;9.70;99.90
26326;DHT22;14032;52.510;7.342;2022-12-29T10:30:14;9.70;99.90
26326;DHT22;14032;52.510;7.342;2022-12-29T10:32:47;9.70;99.90
26326;DHT22;14032;52.510;7.342;2022-12-29T10:35:23;9.70;99.90
26326;DHT22;14032;52.510;7.342;2022-12-29T10:38:18;9.70;99.90
26326;DHT22;14032;52.510;7.342;2022-12-29T10:41:32;9.80;99.90
26326;DHT22;14032;52.510;7.342;2022-12-29T10:43:47;9.80;99.90
26326;DHT22;14032;52.510;7.342;2022-12-29T10:46:18;9.90;99.90
26326;DHT22;14032;52.510;7.342;2022-12-29T10:48:44;9.90;99.90
26326;DHT22;14032;52.510;7.342;2022-12-29T10:51:22;9.90;99.90
26326;DHT22;14032;52.510;7.342;2022-12-29T10:53:58;9.90;99.90
26326;DHT22;14032;52.510;7.342;2022-12-29T10:56:33;10.00;99.90
26326;DHT22;14032;52.510;7.342;2022-12-29T10:59:19;10.00;99.90
26326;DHT22;14032;52.510;7.342;2022-12-29T11:07:28;10.10;99.90
26326;DHT22;14032;52.510;7.342;2022-12-29T11:09:55;10.10;99.90
26326;DHT22;14032;52.510;7.342;2022-12-29T11:12:40;10.10;99.90
26326;DHT22;14032;52.510;7.342;2022-12-29T11:17:44;10.10;99.90
26326;DHT22;14032;52.510;7.342;2022-12-29T11:22:52;10.20;99.90
26326;DHT22;14032;52.510;7.342;2022-12-29T11:25:18;10.20;99.90
26326;DHT22;14032;52.510;7.342;2022-12-29T11:28:00;10.20;99.90
26326;DHT22;14032;52.510;7.342;2022-12-29T11:30:29;10.10;99.90
26326;DHT22;14032;52.510;7.342;2022-12-29T11:32:57;10.20;99.90
26326;DHT22;14032;52.510;7.342;2022-12-29T11:37:57;10.10;99.90
26326;DHT22;14032;52.510;7.342;2022-12-29T11:40:23;10.10;99.90
26326;DHT22;14032;52.510;7.342;2022-12-29T11:42:55;10.00;99.90
26326;DHT22;14032;52.510;7.342;2022-12-29T11:45:27;10.10;99.90
26326;DHT22;14032;52.510;7.342;2022-12-29T11:48:01;10.10;99.90
26326;DHT22;14032;52.510;7.342;2022-12-29T11:50:30;10.10;99.90
26326;DHT22;14032;52.510;7.342;2022-12-29T11:53:03;10.20;99.90
26326;DHT22;14032;52.510;7.342;2022-12-29T11:55:30;10.20;99.90
26326;DHT22;14032;52.510;7.342;2022-12-29T11:57:59;10.10;99.90
26326;DHT22;14032;52.510;7.342;2022-12-29T12:00:27;10.10;99.90
26326;DHT22;14032;52.510;7.342;2022-12-29T12:03:03;10.20;99.90
26326;DHT22;14032;52.510;7.342;2022-12-29T12:05:44;10.20;99.90
26326;DHT22;14032;52.510;7.342;2022-12-29T12:08:17;10.20;99.90
26326;DHT22;14032;52.510;7.342;2022-12-29T12:13:43;10.20;99.90
26326;DHT22;14032;52.510;7.342;2022-12-29T12:16:24;10.20;99.90
26326;DHT22;14032;52.510;7.342;2022-12-29T12:18:56;10.10;99.90
26326;DHT22;14032;52.510;7.342;2022-12-29T12:21:39;10.10;99.90
26326;DHT22;14032;52.510;7.342;2022-12-29T12:24:35;10.10;99.90
26326;DHT22;14032;52.510;7.342;2022-12-29T12:27:14;10.10;99.90
26326;DHT22;14032;52.510;7.342;2022-12-29T12:29:56;10.00;99.90
26326;DHT22;14032;52.510;7.342;2022-12-29T12:32:29;10.00;99.90
26326;DHT22;14032;52.510;7.342;2022-12-29T12:35:00;9.90;99.90
26326;DHT22;14032;52.510;7.342;2022-12-29T12:43:04;9.90;99.90
26326;DHT22;14032;52.510;7.342;2022-12-29T12:45:53;9.90;99.90
26326;DHT22;14032;52.510;7.342;2022-12-29T12:54:26;9.90;99.90
26326;DHT22;14032;52.510;7.342;2022-12-29T12:57:20;9.80;99.90
26326;DHT22;14032;52.510;7.342;2022-12-29T13:00:03;9.90;99.90
26326;DHT22;14032;52.510;7.342;2022-12-29T13:02:43;9.90;99.90
26326;DHT22;14032;52.510;7.342;2022-12-29T13:19:23;9.90;99.90
26326;DHT22;14032;52.510;7.342;2022-12-29T13:30:04;9.80;99.90
26326;DHT22;14032;52.510;7.342;2022-12-29T13:38:01;9.80;99.90
26326;DHT22;14032;52.510;7.342;2022-12-29T13:40:33;9.80;99.90
26326;DHT22;14032;52.510;7.342;2022-12-29T13:43:01;9.80;99.90
26326;DHT22;14032;52.510;7.342;2022-12-29T13:45:30;9.80;99.90
26326;DHT22;14032;52.510;7.342;2022-12-29T13:48:10;9.80;99.90
26326;DHT22;14032;52.510;7.342;2022-12-29T13:50:39;9.80;99.90
26326;DHT22;14032;52.510;7.342;2022-12-29T13:53:28;9.80;99.90
26326;DHT22;14032;52.510;7.342;2022-12-29T13:59:08;9.70;99.90
26326;DHT22;14032;52.510;7.342;2022-12-29T14:01:49;9.70;99.90
26326;DHT22;14032;52.510;7.342;2022-12-29T14:04:25;9.70;99.90
26326;DHT22;14032;52.510;7.342;2022-12-29T14:07:15;9.70;99.90
26326;DHT22;14032;52.510;7.342;2022-12-29T14:09:50;9.60;99.90
26326;DHT22;14032;52.510;7.342;2022-12-29T14:12:27;9.70;99.90
26326;DHT22;14032;52.510;7.342;2022-12-29T14:15:21;9.70;99.90
26326;DHT22;14032;52.510;7.342;2022-12-29T14:18:11;9.60;99.90
26326;DHT22;14032;52.510;7.342;2022-12-29T14:20:49;9.60;99.90
26326;DHT22;14032;52.510;7.342;2022-12-29T14:28:39;9.60;99.90
26326;DHT22;14032;52.510;7.342;2022-12-29T14:36:55;9.60;99.90
26326;DHT22;14032;52.510;7.342;2022-12-29T14:39:43;9.50;99.90
26326;DHT22;14032;52.510;7.342;2022-12-29T14:44:47;9.50;99.90
26326;DHT22;14032;52.510;7.342;2022-12-29T14:52:29;9.50;99.90
26326;DHT22;14032;52.510;7.342;2022-12-29T14:54:59;9.50;99.90
26326;DHT22;14032;52.510;7.342;2022-12-29T14:57:32;9.50;99.90
26326;DHT22;14032;52.510;7.342;2022-12-29T15:00:12;9.50;99.90
26326;DHT22;14032;52.510;7.342;2022-12-29T15:02:41;9.50;99.90
26326;DHT22;14032;52.510;7.342;2022-12-29T15:05:26;9.60;99.90
26326;DHT22;14032;52.510;7.342;2022-12-29T15:07:55;9.60;99.90
26326;DHT22;14032;52.510;7.342;2022-12-29T15:10:22;9.60;99.90
26326;DHT22;14032;52.510;7.342;2022-12-29T15:12:52;9.60;99.90
26326;DHT22;14032;52.510;7.342;2022-12-29T15:15:24;9.60;99.90
26326;DHT22;14032;52.510;7.342;2022-12-29T15:17:50;9.60;99.90
26326;DHT22;14032;52.510;7.342;2022-12-29T15:20:30;9.50;99.90
26326;DHT22;14032;52.510;7.342;2022-12-29T15:23:23;9.50;99.90
26326;DHT22;14032;52.510;7.342;2022-12-29T15:26:06;9.60;99.90
26326;DHT22;14032;52.510;7.342;2022-12-29T15:28:45;9.60;99.90
26326;DHT22;14032;52.510;7.342;2022-12-29T15:33:47;9.60;99.90
26326;DHT22;14032;52.510;7.342;2022-12-29T15:36:25;9.60;99.90
26326;DHT22;14032;52.510;7.342;2022-12-29T15:38:52;9.60;99.90
26326;DHT22;14032;52.510;7.342;2022-12-29T15:41:35;9.50;99.90
26326;DHT22;14032;52.510;7.342;2022-12-29T15:44:35;9.60;99.90
26326;DHT22;14032;52.510;7.342;2022-12-29T15:47:04;9.60;99.90
26326;DHT22;14032;52.510;7.342;2022-12-29T15:49:32;9.60;99.90
26326;DHT22;14032;52.510;7.342;2022-12-29T15:52:05;9.50;99.90
26326;DHT22;14032;52.510;7.342;2022-12-29T15:54:31;9.60;99.90
26326;DHT22;14032;52.510;7.342;2022-12-29T15:56:57;9.60;99.90
26326;DHT22;14032;52.510;7.342;2022-12-29T15:59:31;9.60;99.90
26326;DHT22;14032;52.510;7.342;2022-12-29T16:01:59;9.60;99.90
26326;DHT22;14032;52.510;7.342;2022-12-29T16:04:32;9.50;99.90
26326;DHT22;14032;52.510;7.342;2022-12-29T16:07:03;9.60;99.90
26326;DHT22;14032;52.510;7.342;2022-12-29T16:09:31;9.60;99.90
26326;DHT22;14032;52.510;7.342;2022-12-29T16:12:03;9.60;99.90
26326;DHT22;14032;52.510;7.342;2022-12-29T16:14:40;9.60;99.90
26326;DHT22;14032;52.510;7.342;2022-12-29T16:17:14;9.60;99.90
26326;DHT22;14032;52.510;7.342;2022-12-29T16:19:43;9.60;99.90
26326;DHT22;14032;52.510;7.342;2022-12-29T16:22:21;9.60;99.90
26326;DHT22;14032;52.510;7.342;2022-12-29T16:24:48;9.70;99.90
26326;DHT22;14032;52.510;7.342;2022-12-29T16:28:12;9.70;99.90
26326;DHT22;14032;52.510;7.342;2022-12-29T16:30:30;9.60;99.90
26326;DHT22;14032;52.510;7.342;2022-12-29T16:33:02;9.70;99.90
26326;DHT22;14032;52.510;7.342;2022-12-29T16:38:22;9.60;99.90
26326;DHT22;14032;52.510;7.342;2022-12-29T16:40:55;9.60;99.90
26326;DHT22;14032;52.510;7.342;2022-12-29T16:43:27;9.60;99.90
26326;DHT22;14032;52.510;7.342;2022-12-29T16:48:37;9.40;99.90
26326;DHT22;14032;52.510;7.342;2022-12-29T16:51:20;9.30;99.90
26326;DHT22;14032;52.510;7.342;2022-12-29T16:53:50;9.30;99.90
26326;DHT22;14032;52.510;7.342;2022-12-29T16:56:20;9.20;99.90
26326;DHT22;14032;52.510;7.342;2022-12-29T17:01:44;9.10;99.90
26326;DHT22;14032;52.510;7.342;2022-12-29T17:04:11;9.10;99.90
26326;DHT22;14032;52.510;7.342;2022-12-29T17:06:38;9.10;99.90
26326;DHT22;14032;52.510;7.342;2022-12-29T17:09:17;9.10;99.90
26326;DHT22;14032;52.510;7.342;2022-12-29T17:11:47;9.20;99.90
26326;DHT22;14032;52.510;7.342;2022-12-29T17:16:56;9.10;99.90
26326;DHT22;14032;52.510;7.342;2022-12-29T17:19:30;9.10;99.90
26326;DHT22;14032;52.510;7.342;2022-12-29T17:21:56;9.10;99.90
26326;DHT22;14032;52.510;7.342;2022-12-29T17:24:22;9.10;99.90
26326;DHT22;14032;52.510;7.342;2022-12-29T17:26:49;9.10;99.90
26326;DHT22;14032;52.510;7.342;2022-12-29T17:29:32;9.10;99.90
26326;DHT22;14032;52.510;7.342;2022-12-29T17:32:13;9.10;99.90
26326;DHT22;14032;52.510;7.342;2022-12-29T17:34:40;9.10;99.90
26326;DHT22;14032;52.510;7.342;2022-12-29T17:37:29;9.10;99.90
26326;DHT22;14032;52.510;7.342;2022-12-29T17:39:55;9.20;99.90
26326;DHT22;14032;52.510;7.342;2022-12-29T17:42:21;9.10;99.90
26326;DHT22;14032;52.510;7.342;2022-12-29T17:44:46;9.10;99.90
26326;DHT22;14032;52.510;7.342;2022-12-29T17:47:13;9.10;99.90
26326;DHT22;14032;52.510;7.342;2022-12-29T17:49:40;9.10;99.90
26326;DHT22;14032;52.510;7.342;2022-12-29T17:52:15;9.20;99.90
26326;DHT22;14032;52.510;7.342;2022-12-29T17:54:45;9.20;99.90
26326;DHT22;14032;52.510;7.342;2022-12-29T17:57:13;9.20;99.90
26326;DHT22;14032;52.510;7.342;2022-12-29T17:59:40;9.10;99.90
26326;DHT22;14032;52.510;7.342;2022-12-29T18:02:23;9.10;99.90
26326;DHT22;14032;52.510;7.342;2022-12-29T18:04:49;9.10;99.90
26326;DHT22;14032;52.510;7.342;2022-12-29T18:07:15;9.20;99.90
26326;DHT22;14032;52.510;7.342;2022-12-29T18:09:40;9.10;99.90
26326;DHT22;14032;52.510;7.342;2022-12-29T18:14:53;9.20;99.90
26326;DHT22;14032;52.510;7.342;2022-12-29T18:17:18;9.10;99.90
26326;DHT22;14032;52.510;7.342;2022-12-29T18:19:44;9.20;99.90
26326;DHT22;14032;52.510;7.342;2022-12-29T18:22:10;9.10;99.90
26326;DHT22;14032;52.510;7.342;2022-12-29T18:24:35;9.10;99.90
26326;DHT22;14032;52.510;7.342;2022-12-29T18:27:08;9.10;99.90
26326;DHT22;14032;52.510;7.342;2022-12-29T18:29:35;9.10;99.90
26326;DHT22;14032;52.510;7.342;2022-12-29T18:32:01;9.10;99.90
26326;DHT22;14032;52.510;7.342;2022-12-29T18:34:27;9.10;99.90
26326;DHT22;14032;52.510;7.342;2022-12-29T18:36:52;9.00;99.90
26326;DHT22;14032;52.510;7.342;2022-12-29T18:39:18;9.00;99.90